Time;durP1;ratioP1;P1;durP2;ratioP2;P2;SDS_P1;SDS_P2;PMS_P1;PMS_P2;Temp;Humidity;BMP_temperature;BMP_pressure;BME280_temperature;BME280_humidity;BME280_pressure;Samples;Min_cycle;Max_cycle;Signal;HPM_P1;HPM_P2
2022/09/05 00:01:22;;;;;;;;;;;25.50;57.70;;;;;;5010587;27;93000;-59
2022/09/05 00:04:05;;;;;;;62.00;51.15;;;25.50;57.70;;;;;;5004502;27;91861;-60
2022/09/05 00:06:36;;;;;;;61.92;51.15;;;25.50;57.80;;;;;;4998527;27;91249;-59
2022/09/05 00:09:10;;;;;;;61.97;50.95;;;25.50;58.50;;;;;;5004340;27;89904;-60
2022/09/05 00:11:46;;;;;;;62.30;50.95;;;25.40;57.80;;;;;;5008050;27;90065;-61
2022/09/05 00:14:38;;;;;;;61.70;51.15;;;25.50;57.80;;;;;;4995757;27;90032;-59
2022/09/05 00:17:29;;;;;;;62.20;51.17;;;25.40;57.80;;;;;;4973459;27;90389;-59
2022/09/05 00:20:10;;;;;;;61.67;50.97;;;25.40;57.80;;;;;;5003346;27;91149;-60
2022/09/05 00:22:57;;;;;;;61.35;50.83;;;25.40;57.80;;;;;;5002602;27;90274;-60
2022/09/05 00:25:57;;;;;;;61.03;50.72;;;25.40;57.80;;;;;;4994781;27;89526;-60
2022/09/05 00:28:48;;;;;;;61.73;50.93;;;25.40;57.80;;;;;;4985769;27;94390;-60
2022/09/05 00:31:28;;;;;;;61.47;51.03;;;25.40;57.90;;;;;;4998438;27;93178;-60
2022/09/05 00:34:03;;;;;;;61.03;50.85;;;25.40;57.90;;;;;;5004454;27;91515;-60
2022/09/05 00:36:43;;;;;;;61.60;50.80;;;25.40;57.90;;;;;;4999986;27;94229;-59
2022/09/05 00:39:25;;;;;;;62.77;51.27;;;25.40;57.90;;;;;;5001745;27;91107;-60
2022/09/05 00:41:57;;;;;;;63.17;50.83;;;25.40;57.90;;;;;;4998064;27;91131;-60
2022/09/05 00:44:25;;;;;;;61.90;50.83;;;25.40;57.80;;;;;;5002297;27;91146;-58
2022/09/05 00:47:12;;;;;;;61.08;51.08;;;25.40;57.80;;;;;;5010603;27;89562;-60
2022/09/05 00:49:51;;;;;;;61.50;51.03;;;25.40;57.90;;;;;;5007585;27;91066;-60
2022/09/05 00:52:30;;;;;;;61.85;51.05;;;25.40;57.80;;;;;;4997093;27;95340;-59
2022/09/05 00:55:20;;;;;;;61.40;50.65;;;25.40;57.80;;;;;;4997905;27;95226;-60
2022/09/05 00:58:07;;;;;;;60.70;50.57;;;25.40;57.80;;;;;;5005030;27;92243;-60
2022/09/05 01:00:33;;;;;;;61.60;51.08;;;25.40;57.90;;;;;;4997915;27;91305;-60
2022/09/05 01:03:10;;;;;;;61.78;51.03;;;25.40;57.90;;;;;;5003767;27;91337;-60
2022/09/05 01:05:57;;;;;;;61.42;50.90;;;25.40;57.80;;;;;;5003085;27;95552;-60
2022/09/05 01:08:41;;;;;;;61.45;50.80;;;25.40;57.70;;;;;;4998025;27;94660;-60
2022/09/05 01:11:31;;;;;;;60.67;50.63;;;25.40;57.80;;;;;;5003407;27;91348;-59
2022/09/05 01:14:15;;;;;;;62.40;50.95;;;25.40;57.80;;;;;;5006654;27;91119;-60
2022/09/05 01:17:00;;;;;;;61.47;50.72;;;25.40;57.80;;;;;;5010128;27;90651;-60
2022/09/05 01:19:51;;;;;;;61.30;50.95;;;25.30;57.70;;;;;;5001452;27;96172;-60
2022/09/05 01:22:47;;;;;;;61.15;50.67;;;25.40;57.80;;;;;;5001412;27;94406;-61
2022/09/05 01:25:37;;;;;;;60.88;50.65;;;25.40;57.80;;;;;;4999473;27;91136;-60
2022/09/05 01:28:25;;;;;;;60.90;50.63;;;25.30;57.70;;;;;;5002527;27;90001;-59
2022/09/05 01:30:59;;;;;;;61.00;50.83;;;25.40;57.80;;;;;;5006954;27;89716;-60
2022/09/05 01:33:52;;;;;;;61.45;50.83;;;25.30;57.70;;;;;;4997022;27;90900;-60
2022/09/05 01:36:55;;;;;;;61.20;50.67;;;25.30;57.70;;;;;;5002387;27;91326;-60
2022/09/05 01:39:31;;;;;;;61.10;50.15;;;25.30;57.80;;;;;;4997198;27;95210;-60
2022/09/05 01:42:10;;;;;;;61.03;50.58;;;25.40;57.80;;;;;;4999607;27;90012;-60
2022/09/05 01:44:45;;;;;;;61.50;50.45;;;25.30;57.70;;;;;;5004396;27;94674;-60
2022/09/05 01:47:26;;;;;;;61.13;50.90;;;25.30;57.70;;;;;;5000790;27;91428;-60
2022/09/05 01:50:08;;;;;;;61.00;50.47;;;25.30;57.70;;;;;;5000487;27;94116;-59
2022/09/05 01:53:05;;;;;;;61.88;50.78;;;25.30;57.60;;;;;;4998141;27;89995;-60
2022/09/05 01:56:04;;;;;;;60.67;50.55;;;25.30;57.70;;;;;;4994880;27;93138;-61
2022/09/05 01:59:03;;;;;;;61.55;50.67;;;25.30;57.70;;;;;;4991378;27;97287;-60
2022/09/05 02:01:47;;;;;;;60.97;50.88;;;25.30;58.20;;;;;;4996195;27;95269;-59
2022/09/05 02:04:37;;;;;;;61.25;50.63;;;25.30;57.60;;;;;;4994628;27;95970;-58
2022/09/05 02:07:47;;;;;;;60.85;50.55;;;25.30;57.60;;;;;;4999306;27;90962;-60
2022/09/05 02:10:32;;;;;;;60.45;50.53;;;25.30;57.60;;;;;;4995347;27;95199;-60
2022/09/05 02:13:09;;;;;;;60.63;50.60;;;25.30;57.50;;;;;;5008485;27;90994;-60
2022/09/05 02:15:57;;;;;;;61.13;50.83;;;25.20;57.50;;;;;;4997805;27;95584;-60
2022/09/05 02:18:52;;;;;;;60.85;50.65;;;25.30;57.50;;;;;;5003427;27;98696;-60
2022/09/05 02:21:34;;;;;;;60.65;50.83;;;25.30;57.50;;;;;;4994537;27;91145;-60
2022/09/05 02:24:27;;;;;;;61.60;50.83;;;25.30;57.50;;;;;;5000036;27;91166;-60
2022/09/05 02:27:01;;;;;;;61.15;50.80;;;25.30;57.50;;;;;;4999930;27;94636;-60
2022/09/05 02:29:40;;;;;;;63.33;50.88;;;25.30;57.50;;;;;;4999952;27;97413;-60
2022/09/05 02:32:20;;;;;;;61.72;50.83;;;25.20;57.30;;;;;;5002626;27;90916;-60
2022/09/05 02:35:04;;;;;;;61.30;50.63;;;25.30;57.40;;;;;;4997989;27;91742;-60
2022/09/05 02:37:41;;;;;;;62.28;51.15;;;25.30;57.30;;;;;;4998089;27;89928;-60
2022/09/05 02:40:19;;;;;;;62.15;50.80;;;25.30;57.30;;;;;;4998242;27;92830;-60
2022/09/05 02:42:59;;;;;;;61.05;50.67;;;25.30;57.20;;;;;;5002728;27;96800;-60
2022/09/05 02:45:34;;;;;;;61.55;51.03;;;25.20;57.20;;;;;;4999253;27;90998;-60
2022/09/05 02:48:13;;;;;;;62.20;51.05;;;25.30;57.20;;;;;;5000916;27;89968;-60
2022/09/05 02:50:46;;;;;;;61.13;50.88;;;25.30;57.20;;;;;;4994578;27;92289;-60
2022/09/05 02:53:15;;;;;;;61.35;50.85;;;25.20;57.20;;;;;;4994730;27;94831;-60
2022/09/05 02:56:02;;;;;;;60.88;50.65;;;25.30;57.10;;;;;;4993426;27;91280;-60
2022/09/05 02:58:52;;;;;;;60.78;50.70;;;25.30;57.00;;;;;;4994241;27;90483;-60
2022/09/05 03:01:43;;;;;;;60.97;50.92;;;25.30;57.00;;;;;;4994261;27;91108;-60
2022/09/05 03:04:23;;;;;;;60.83;50.35;;;25.30;57.10;;;;;;5004752;27;91465;-60
2022/09/05 03:07:31;;;;;;;61.22;50.95;;;25.20;57.00;;;;;;5006398;27;91026;-60
2022/09/05 03:10:18;;;;;;;61.15;50.85;;;25.30;57.10;;;;;;4999580;27;92983;-60
2022/09/05 03:12:46;;;;;;;60.78;50.72;;;25.20;57.00;;;;;;5003896;27;93674;-59
2022/09/05 03:15:22;;;;;;;60.90;50.83;;;25.30;57.10;;;;;;5008629;27;91865;-62
2022/09/05 03:18:08;;;;;;;60.97;50.65;;;25.20;57.00;;;;;;5011539;27;90358;-60
2022/09/05 03:20:52;;;;;;;61.85;50.58;;;25.30;57.00;;;;;;5009927;27;100457;-60
2022/09/05 03:23:29;;;;;;;61.00;50.80;;;25.30;56.90;;;;;;4995680;27;90726;-60
2022/09/05 03:25:54;;;;;;;60.85;50.60;;;25.30;56.90;;;;;;5002419;27;90940;-59
2022/09/05 03:28:29;;;;;;;60.75;50.58;;;25.30;57.00;;;;;;5000406;27;90270;-60
2022/09/05 03:31:13;;;;;;;61.15;50.95;;;25.30;56.80;;;;;;4998210;27;89480;-60
2022/09/05 03:33:54;;;;;;;61.25;51.13;;;25.20;56.80;;;;;;5002859;27;91403;-60
2022/09/05 03:36:29;;;;;;;;;;;25.30;56.80;;;;;;5002959;27;90979;-60
2022/09/05 03:39:42;;;;;;;60.50;50.60;;;25.30;56.70;;;;;;5006940;27;92854;-60
2022/09/05 03:42:16;;;;;;;61.55;50.75;;;25.30;56.70;;;;;;4989228;27;90073;-60
2022/09/05 03:44:59;;;;;;;61.22;50.80;;;25.30;56.70;;;;;;4998991;27;91044;-60
2022/09/05 03:48:02;;;;;;;60.67;50.63;;;25.30;56.60;;;;;;5004447;27;91996;-60
2022/09/05 03:50:55;;;;;;;61.25;50.65;;;25.20;56.60;;;;;;5010535;27;90398;-60
2022/09/05 03:53:58;;;;;;;61.38;50.88;;;25.30;56.50;;;;;;5005783;27;90874;-60
2022/09/05 03:56:48;;;;;;;61.88;50.70;;;25.30;56.50;;;;;;4981227;28;91138;-60
2022/09/05 03:59:33;;;;;;;60.90;50.55;;;25.30;56.60;;;;;;5001981;27;92683;-60
2022/09/05 04:02:04;;;;;;;62.00;50.83;;;25.30;56.40;;;;;;4994151;27;93609;-60
2022/09/05 04:04:43;;;;;;;62.22;50.88;;;25.30;56.50;;;;;;5009194;27;91084;-60
2022/09/05 04:07:15;;;;;;;60.97;50.65;;;25.30;56.40;;;;;;5003773;27;94920;-60
2022/09/05 04:10:02;;;;;;;61.47;50.92;;;25.30;56.50;;;;;;5002006;27;91941;-60
2022/09/05 04:12:37;;;;;;;61.67;50.88;;;25.30;56.40;;;;;;4997492;27;93066;-59
2022/09/05 04:15:16;;;;;;;62.33;50.83;;;25.30;56.30;;;;;;5006538;27;90611;-60
2022/09/05 04:17:46;;;;;;;62.25;50.85;;;25.30;56.40;;;;;;5004763;27;91572;-61
2022/09/05 04:20:31;;;;;;;61.95;50.42;;;25.30;56.40;;;;;;5005026;27;90956;-60
2022/09/05 04:23:25;;;;;;;61.55;50.78;;;25.30;56.40;;;;;;5002881;27;90860;-60
2022/09/05 04:26:29;;;;;;;60.38;50.55;;;25.30;56.30;;;;;;5003046;27;89553;-60
2022/09/05 04:29:04;;;;;;;60.88;50.58;;;25.30;56.40;;;;;;4995149;27;91133;-61
2022/09/05 04:31:42;;;;;;;60.53;50.42;;;25.30;56.40;;;;;;4991694;27;90986;-60
2022/09/05 04:34:33;;;;;;;61.05;50.70;;;25.20;56.50;;;;;;4998493;27;92771;-60
2022/09/05 04:37:05;;;;;;;63.10;50.78;;;25.20;56.50;;;;;;5004706;27;97301;-60
2022/09/05 04:39:32;;;;;;;61.25;50.75;;;25.20;56.60;;;;;;4998315;27;93309;-60
2022/09/05 04:42:03;;;;;;;61.08;50.75;;;25.20;56.70;;;;;;4994124;27;91387;-60
2022/09/05 04:44:34;;;;;;;62.25;50.80;;;25.20;56.60;;;;;;5001518;27;94059;-60
2022/09/05 04:47:38;;;;;;;60.70;50.83;;;25.30;56.80;;;;;;5001630;27;94515;-60
2022/09/05 04:50:18;;;;;;;62.28;51.00;;;25.20;56.70;;;;;;4999127;27;96968;-60
2022/09/05 04:53:36;;;;;;;61.90;50.50;;;25.20;56.80;;;;;;5002753;27;90318;-60
2022/09/05 04:56:11;;;;;;;60.72;50.63;;;25.30;56.80;;;;;;4970563;28;91157;-60
2022/09/05 04:58:42;;;;;;;60.60;50.65;;;25.20;56.90;;;;;;4969232;28;89869;-60
2022/09/05 05:01:21;;;;;;;;;;;25.20;56.80;;;;;;4983183;27;92745;-60
2022/09/05 05:03:47;;;;;;;68.72;51.58;;;25.20;56.90;;;;;;4999261;27;93182;-58
2022/09/05 05:06:29;;;;;;;65.18;52.08;;;25.40;57.20;;;;;;5002982;27;92090;-59
2022/09/05 05:08:58;;;;;;;67.47;52.85;;;25.30;57.20;;;;;;5004417;27;95257;-58
2022/09/05 05:11:52;;;;;;;64.00;51.17;;;25.20;57.20;;;;;;5005305;27;90266;-58
2022/09/05 05:14:47;;;;;;;63.92;51.40;;;25.20;57.00;;;;;;4999123;27;94161;-57
2022/09/05 05:17:38;;;;;;;65.70;51.88;;;25.20;56.90;;;;;;5002277;27;92131;-57
2022/09/05 05:20:19;;;;;;;71.10;52.30;;;25.20;57.00;;;;;;4987300;27;101047;-57
2022/09/05 05:23:05;;;;;;;76.53;53.53;;;25.20;56.90;;;;;;4996721;27;96611;-55
2022/09/05 05:25:41;;;;;;;69.47;52.13;;;25.20;57.30;;;;;;5000721;27;91162;-55
2022/09/05 05:28:46;;;;;;;68.93;53.00;;;25.20;57.20;;;;;;4997570;27;92605;-55
2022/09/05 05:31:18;;;;;;;72.00;53.53;;;25.20;57.10;;;;;;4983895;28;91124;-54
2022/09/05 05:33:47;;;;;;;77.93;53.65;;;25.10;57.00;;;;;;5001991;28;94842;-55
2022/09/05 05:36:23;;;;;;;76.38;53.95;;;25.10;57.10;;;;;;5009710;27;92048;-57
2022/09/05 05:39:05;;;;;;;70.28;53.13;;;25.10;57.00;;;;;;5007160;27;90149;-55
2022/09/05 05:41:48;;;;;;;71.60;53.65;;;25.10;57.00;;;;;;5003220;27;93195;-55
2022/09/05 05:44:36;;;;;;;71.20;53.65;;;25.10;56.90;;;;;;5008082;27;91324;-56
2022/09/05 05:47:18;;;;;;;73.03;53.30;;;25.10;56.80;;;;;;5000481;27;91123;-56
2022/09/05 05:49:48;;;;;;;72.38;53.47;;;25.10;56.80;;;;;;5006250;27;96977;-57
2022/09/05 05:52:17;;;;;;;76.97;55.07;;;25.10;56.80;;;;;;5008879;27;89994;-56
2022/09/05 05:54:52;;;;;;;71.18;53.75;;;25.10;56.90;;;;;;5009643;27;91881;-56
2022/09/05 05:57:42;;;;;;;69.68;53.10;;;25.00;56.90;;;;;;5011966;27;91799;-55
2022/09/05 06:00:16;;;;;;;77.97;53.55;;;25.10;56.90;;;;;;5008696;27;89947;-54
2022/09/05 06:03:03;;;;;;;74.00;54.22;;;25.10;56.90;;;;;;5005085;27;90602;-53
2022/09/05 06:06:11;;;;;;;73.40;54.08;;;25.10;56.90;;;;;;5007055;27;91342;-55
2022/09/05 06:08:56;;;;;;;73.38;53.97;;;25.10;56.90;;;;;;5007927;27;91971;-57
2022/09/05 06:11:21;;;;;;;72.07;54.28;;;25.10;56.90;;;;;;5006719;27;89914;-54
2022/09/05 06:14:06;;;;;;;72.10;53.75;;;25.10;56.80;;;;;;5003780;27;95082;-56
2022/09/05 06:17:18;;;;;;;68.40;53.42;;;25.10;56.90;;;;;;5007512;27;91090;-56
2022/09/05 06:20:05;;;;;;;70.55;53.88;;;25.10;56.80;;;;;;5002546;27;92898;-56
2022/09/05 06:23:16;;;;;;;73.03;53.70;;;25.00;56.80;;;;;;5002883;28;92164;-57
2022/09/05 06:26:19;;;;;;;72.18;54.05;;;25.10;56.90;;;;;;5009061;27;90200;-54
2022/09/05 06:29:11;;;;;;;69.00;53.63;;;25.00;56.70;;;;;;5002891;27;96397;-56
2022/09/05 06:31:59;;;;;;;70.05;53.25;;;25.00;56.70;;;;;;4993785;27;90978;-56
2022/09/05 06:34:46;;;;;;;74.82;54.95;;;25.00;56.80;;;;;;4996314;27;90877;-50
2022/09/05 06:37:20;;;;;;;69.82;53.30;;;24.90;54.20;;;;;;4993065;27;91223;-55
2022/09/05 06:39:55;;;;;;;65.88;52.35;;;24.60;53.70;;;;;;4987669;27;94385;-57
2022/09/05 06:42:44;;;;;;;65.95;51.75;;;24.50;53.80;;;;;;4993876;27;92701;-57
2022/09/05 06:45:24;;;;;;;64.30;51.30;;;24.40;54.00;;;;;;4996492;27;90270;-55
2022/09/05 06:47:57;;;;;;;66.35;51.42;;;24.40;54.30;;;;;;5004725;27;91046;-55
2022/09/05 06:50:37;;;;;;;63.63;51.13;;;24.20;54.80;;;;;;5001565;27;91999;-56
2022/09/05 06:53:36;;;;;;;62.53;50.80;;;24.20;54.60;;;;;;4994609;27;95000;-51
2022/09/05 06:56:04;;;;;;;63.63;51.03;;;24.00;55.00;;;;;;4999565;27;90504;-53
2022/09/05 06:58:52;;;;;;;61.10;50.92;;;24.10;55.00;;;;;;4995870;27;90206;-56
2022/09/05 07:01:26;;;;;;;62.22;50.67;;;24.20;55.20;;;;;;4991632;27;91731;-62
2022/09/05 07:03:55;;;;;;;63.67;50.85;;;24.20;53.90;;;;;;4999191;27;92367;-54
2022/09/05 07:06:37;;;;;;;62.33;50.72;;;24.20;54.60;;;;;;5004652;27;90463;-58
2022/09/05 07:09:21;;;;;;;64.85;50.95;;;24.10;55.20;;;;;;5007995;27;90643;-58
2022/09/05 07:12:01;;;;;;;62.70;50.75;;;24.20;54.50;;;;;;5009728;27;95047;-55
2022/09/05 07:14:37;;;;;;;63.45;50.67;;;24.20;54.00;;;;;;5002680;27;92176;-58
2022/09/05 07:17:17;;;;;;;62.78;50.97;;;24.20;53.80;;;;;;4995510;27;90828;-58
2022/09/05 07:19:48;;;;;;;62.05;50.92;;;24.30;53.90;;;;;;4999714;27;91141;-58
2022/09/05 07:22:44;;;;;;;62.17;50.85;;;24.30;53.90;;;;;;4996693;27;94970;-58
2022/09/05 07:25:15;;;;;;;61.90;50.63;;;24.40;53.50;;;;;;4994027;27;96722;-55
2022/09/05 07:27:48;;;;;;;61.17;50.77;;;24.30;53.00;;;;;;4992962;27;91515;-56
2022/09/05 07:30:17;;;;;;;63.05;50.72;;;24.30;53.30;;;;;;4999907;27;91965;-54
2022/09/05 07:32:46;;;;;;;61.95;50.63;;;24.30;53.00;;;;;;4992645;27;91486;-56
2022/09/05 07:35:19;;;;;;;62.30;50.72;;;24.40;53.20;;;;;;4996609;27;91769;-55
2022/09/05 07:37:51;;;;;;;64.30;51.05;;;24.50;53.30;;;;;;5000477;27;90114;-58
2022/09/05 07:40:21;;;;;;;61.78;51.03;;;24.60;52.80;;;;;;4998071;27;93079;-60
2022/09/05 07:42:52;;;;;;;62.72;50.95;;;24.60;52.50;;;;;;4999204;27;91815;-64
2022/09/05 07:45:27;;;;;;;61.60;50.60;;;24.60;52.80;;;;;;5001434;27;92467;-62
2022/09/05 07:48:04;;;;;;;62.85;50.88;;;24.70;52.30;;;;;;4992686;27;95770;-63
2022/09/05 07:50:32;;;;;;;61.53;51.00;;;24.70;52.20;;;;;;5008336;27;89911;-61
2022/09/05 07:53:02;;;;;;;61.30;50.88;;;24.80;52.50;;;;;;5003841;27;91379;-56
2022/09/05 07:55:30;;;;;;;63.00;51.13;;;24.90;52.70;;;;;;5000572;27;91066;-58
2022/09/05 07:58:00;;;;;;;64.50;51.00;;;24.90;53.20;;;;;;5001075;27;90294;-68
2022/09/05 08:00:28;;;;;;;63.70;51.35;;;24.80;52.30;;;;;;4995451;27;90922;-62
2022/09/05 08:02:56;;;;;;;62.92;51.15;;;24.90;52.40;;;;;;4997424;27;90907;-65
2022/09/05 08:05:25;;;;;;;63.17;51.15;;;25.00;52.90;;;;;;4999624;27;91433;-63
2022/09/05 08:07:54;;;;;;;63.15;51.13;;;24.90;53.20;;;;;;5000053;27;94308;-60
2022/09/05 08:10:32;;;;;;;62.95;51.08;;;24.90;53.10;;;;;;5000512;27;91120;-59
2022/09/05 08:13:08;;;;;;;62.75;51.15;;;24.90;53.30;;;;;;4997760;27;93678;-57
2022/09/05 08:15:36;;;;;;;65.50;51.45;;;24.90;53.20;;;;;;4995467;27;94639;-56
2022/09/05 08:18:49;;;;;;;65.50;51.38;;;25.00;53.30;;;;;;5001859;27;91101;-51
2022/09/05 08:21:41;;;;;;;64.20;51.88;;;25.00;53.40;;;;;;4994464;27;89980;-53
2022/09/05 08:24:24;;;;;;;63.67;51.45;;;25.00;53.50;;;;;;4998509;27;91087;-54
2022/09/05 08:27:15;;;;;;;63.38;51.53;;;25.10;53.30;;;;;;5002151;27;91124;-63
2022/09/05 08:29:46;;;;;;;63.85;51.45;;;25.10;53.40;;;;;;5001847;27;91691;-55
2022/09/05 08:32:21;;;;;;;62.90;51.37;;;25.20;53.00;;;;;;5007922;27;89753;-59
2022/09/05 08:35:02;;;;;;;64.75;51.60;;;25.20;53.10;;;;;;5002363;27;92701;-60
2022/09/05 08:37:30;;;;;;;63.77;51.60;;;25.20;53.00;;;;;;4997972;27;92231;-59
2022/09/05 08:40:06;;;;;;;63.83;51.55;;;25.30;53.00;;;;;;4998417;27;91148;-59
2022/09/05 08:42:32;;;;;;;63.90;51.45;;;25.30;53.10;;;;;;5000781;27;95759;-61
2022/09/05 08:45:15;;;;;;;62.72;51.40;;;25.30;52.90;;;;;;5004728;28;92093;-58
2022/09/05 08:47:57;;;;;;;63.05;51.58;;;25.30;53.50;;;;;;5006900;27;91384;-56
2022/09/05 08:50:50;;;;;;;63.05;51.58;;;25.30;52.40;;;;;;5006798;27;90550;-57
2022/09/05 08:53:53;;;;;;;62.58;51.63;;;25.30;52.80;;;;;;5008489;27;89490;-55
2022/09/05 08:56:24;;;;;;;63.78;51.42;;;25.30;53.10;;;;;;5003121;28;90984;-54
2022/09/05 08:59:15;;;;;;;65.40;51.65;;;25.30;53.00;;;;;;5005695;27;93319;-56
2022/09/05 09:01:54;;;;;;;63.25;51.58;;;25.40;52.70;;;;;;5004748;27;91960;-60
2022/09/05 09:04:40;;;;;;;64.55;51.42;;;25.40;52.90;;;;;;5007448;27;92203;-56
2022/09/05 09:07:25;;;;;;;64.57;51.60;;;25.40;52.70;;;;;;5007244;27;90557;-58
2022/09/05 09:10:09;;;;;;;63.85;51.53;;;25.50;52.70;;;;;;4998111;27;92401;-54
2022/09/05 09:12:56;;;;;;;64.43;51.80;;;25.50;52.40;;;;;;5003061;27;96540;-62
2022/09/05 09:15:28;;;;;;;63.65;51.85;;;25.60;52.40;;;;;;5001618;27;91650;-56
2022/09/05 09:17:54;;;;;;;64.63;51.88;;;25.50;52.30;;;;;;5005416;27;90553;-56
2022/09/05 09:21:11;;;;;;;64.63;52.05;;;25.50;52.70;;;;;;5000145;27;92708;-52
2022/09/05 09:23:48;;;;;;;62.97;51.85;;;25.50;52.40;;;;;;4954739;28;91084;-56
2022/09/05 09:26:26;;;;;;;64.38;51.90;;;25.60;52.10;;;;;;5001713;27;90119;-55
2022/09/05 09:29:05;;;;;;;65.55;52.03;;;25.70;51.70;;;;;;4995660;27;91390;-57
2022/09/05 09:32:02;;;;;;;64.55;51.75;;;25.60;51.70;;;;;;4995797;27;90848;-57
2022/09/05 09:34:37;;;;;;;65.43;52.03;;;25.50;52.70;;;;;;5000664;27;90440;-54
2022/09/05 09:37:30;;;;;;;64.18;51.92;;;25.60;52.90;;;;;;5006241;27;90212;-58
2022/09/05 09:40:14;;;;;;;64.60;52.20;;;25.60;52.80;;;;;;5005334;27;92129;-59
2022/09/05 09:43:01;;;;;;;65.47;51.97;;;25.60;52.80;;;;;;4999324;27;96657;-55
2022/09/05 09:45:59;;;;;;;63.50;51.55;;;25.70;52.70;;;;;;4998143;27;90814;-53
2022/09/05 09:48:44;;;;;;;64.22;52.20;;;25.70;52.50;;;;;;5004026;27;89875;-60
2022/09/05 09:51:25;;;;;;;64.45;52.05;;;25.70;52.60;;;;;;4999628;27;90983;-58
2022/09/05 09:54:11;;;;;;;66.20;52.17;;;25.80;52.40;;;;;;4996819;27;91591;-56
2022/09/05 09:57:14;;;;;;;67.72;52.08;;;25.90;52.50;;;;;;4991712;27;93890;-56
2022/09/05 09:59:52;;;;;;;66.30;52.25;;;25.80;52.60;;;;;;4992244;27;91848;-57
2022/09/05 10:02:36;;;;;;;66.53;52.40;;;25.60;52.80;;;;;;4998962;27;92810;-57
2022/09/05 10:05:11;;;;;;;66.68;52.25;;;25.60;53.10;;;;;;5002064;27;90597;-57
2022/09/05 10:08:00;;;;;;;63.72;51.90;;;25.60;53.20;;;;;;4995452;27;91052;-53
2022/09/05 10:10:51;;;;;;;64.00;51.90;;;25.60;53.40;;;;;;4998333;27;89864;-56
2022/09/05 10:13:24;;;;;;;67.18;51.95;;;25.60;53.40;;;;;;4999110;27;93009;-57
2022/09/05 10:16:17;;;;;;;65.50;52.13;;;25.60;53.50;;;;;;4994869;27;95132;-55
2022/09/05 10:19:18;;;;;;;65.43;51.95;;;25.60;53.40;;;;;;4999941;27;92508;-57
2022/09/05 10:22:02;;;;;;;65.03;52.15;;;25.70;53.60;;;;;;5005116;27;90859;-56
2022/09/05 10:25:05;;;;;;;63.60;51.90;;;25.60;53.30;;;;;;5005968;27;92095;-52
2022/09/05 10:28:04;;;;;;;65.57;52.17;;;25.70;53.30;;;;;;5000096;27;92270;-55
2022/09/05 10:30:59;;;;;;;65.82;52.10;;;25.80;53.20;;;;;;4998116;27;93550;-56
2022/09/05 10:33:43;;;;;;;65.43;52.33;;;25.80;53.10;;;;;;5011463;27;89791;-53
2022/09/05 10:36:08;;;;;;;64.90;52.08;;;25.90;53.30;;;;;;5006358;27;91392;-53
2022/09/05 10:38:59;;;;;;;64.05;52.15;;;25.90;52.90;;;;;;5006375;27;89941;-55
2022/09/05 10:41:42;;;;;;;64.15;52.28;;;26.00;52.90;;;;;;5005232;27;90256;-56
2022/09/05 10:44:09;;;;;;;64.32;51.97;;;26.00;52.90;;;;;;5001176;27;89264;-57
2022/09/05 10:47:05;;;;;;;64.93;52.00;;;26.00;52.80;;;;;;5003176;27;96029;-55
2022/09/05 10:49:37;;;;;;;64.22;51.90;;;26.00;52.90;;;;;;5004679;27;93067;-56
2022/09/05 10:52:33;;;;;;;63.78;52.10;;;26.10;52.90;;;;;;5004929;27;90753;-56
2022/09/05 10:55:24;;;;;;;63.40;51.58;;;26.10;52.70;;;;;;4996707;27;93334;-56
2022/09/05 10:58:07;;;;;;;64.75;52.28;;;26.20;52.80;;;;;;5006423;27;91487;-55
2022/09/05 11:01:11;;;;;;;63.35;51.80;;;26.20;52.60;;;;;;5005509;27;91211;-58
2022/09/05 11:03:51;;;;;;;63.97;52.10;;;26.20;52.60;;;;;;5002281;27;89572;-56
2022/09/05 11:06:41;;;;;;;64.05;52.13;;;26.20;52.50;;;;;;5001169;27;97499;-55
2022/09/05 11:09:11;;;;;;;64.32;52.35;;;26.30;52.60;;;;;;5004049;27;92248;-56
2022/09/05 11:11:45;;;;;;;64.68;52.00;;;26.30;52.60;;;;;;5007722;27;91055;-54
2022/09/05 11:14:32;;;;;;;64.03;52.08;;;26.30;52.50;;;;;;5007508;27;89731;-56
2022/09/05 11:17:12;;;;;;;64.35;52.15;;;26.30;52.60;;;;;;5007065;27;91125;-56
2022/09/05 11:19:44;;;;;;;64.23;52.40;;;26.30;52.50;;;;;;4992981;27;92119;-56
2022/09/05 11:22:12;;;;;;;64.72;52.15;;;26.30;52.50;;;;;;4990118;27;96341;-55
2022/09/05 11:24:54;;;;;;;64.45;52.15;;;26.30;52.50;;;;;;4998213;27;93845;-57
2022/09/05 11:27:42;;;;;;;64.28;52.22;;;26.40;52.50;;;;;;4993893;27;90607;-55
2022/09/05 11:30:20;;;;;;;65.15;52.30;;;26.30;52.60;;;;;;4990729;27;91508;-55
2022/09/05 11:33:20;;;;;;;65.95;52.22;;;26.40;53.10;;;;;;4999748;27;91758;-56
2022/09/05 11:35:52;;;;;;;65.68;52.25;;;26.40;53.50;;;;;;5007450;27;90221;-60
2022/09/05 11:38:55;;;;;;;63.80;52.17;;;26.40;53.90;;;;;;5006921;27;91706;-56
2022/09/05 11:41:55;;;;;;;64.85;52.13;;;26.50;54.10;;;;;;4997185;27;91153;-56
2022/09/05 11:44:25;;;;;;;67.63;52.35;;;26.40;54.00;;;;;;4990268;27;90373;-56
2022/09/05 11:47:00;;;;;;;69.18;52.55;;;26.50;54.10;;;;;;5003180;27;91052;-56
2022/09/05 11:49:31;;;;;;;67.00;52.28;;;26.40;54.20;;;;;;5000524;27;95882;-59
2022/09/05 11:52:03;;;;;;;64.45;52.25;;;26.30;54.30;;;;;;4999716;27;90794;-63
2022/09/05 11:54:50;;;;;;;66.28;52.40;;;26.40;54.40;;;;;;4996974;27;91595;-63
2022/09/05 11:57:41;;;;;;;64.30;52.13;;;26.30;54.50;;;;;;5001379;27;91348;-60
2022/09/05 12:00:10;;;;;;;63.85;52.00;;;26.30;54.60;;;;;;5003103;27;94077;-64
2022/09/05 12:02:48;;;;;;;63.85;52.20;;;26.30;54.70;;;;;;4993921;27;98719;-57
2022/09/05 12:05:48;;;;;;;65.55;52.55;;;26.40;54.50;;;;;;4998428;27;91324;-57
2022/09/05 12:08:39;;;;;;;70.28;52.38;;;26.30;54.70;;;;;;5002147;27;90241;-56
2022/09/05 12:11:46;;;;;;;66.38;52.30;;;26.30;54.90;;;;;;5001228;27;92223;-53
2022/09/05 12:14:42;;;;;;;64.70;52.72;;;26.20;54.80;;;;;;4996853;27;98604;-57
2022/09/05 12:17:46;;;;;;;64.97;52.30;;;26.20;54.90;;;;;;4995251;27;91834;-56
2022/09/05 12:20:29;;;;;;;65.03;52.33;;;26.30;54.90;;;;;;5003134;27;95846;-61
2022/09/05 12:23:47;;;;;;;64.25;52.40;;;26.20;55.10;;;;;;4993802;27;98179;-60
2022/09/05 12:26:29;;;;;;;66.55;52.25;;;26.30;55.10;;;;;;4995289;27;92291;-59
2022/09/05 12:29:00;;;;;;;65.32;52.70;;;26.30;54.80;;;;;;5008959;27;91463;-53
2022/09/05 12:32:01;;;;;;;65.88;52.65;;;26.50;53.60;;;;;;5009647;27;92102;-52
2022/09/05 12:34:37;;;;;;;;;;;26.50;52.40;;;;;;5007834;27;90357;-55
2022/09/05 12:37:08;;;;;;;66.78;53.17;;;26.50;51.70;;;;;;5009679;27;90938;-56
2022/09/05 12:39:44;;;;;;;;;;;26.50;51.80;;;;;;5000587;27;91460;-56
2022/09/05 12:42:28;;;;;;;65.45;52.92;;;26.60;51.90;;;;;;4997512;27;98872;-57
2022/09/05 12:45:08;;;;;;;66.60;52.92;;;26.60;50.60;;;;;;4998966;27;90061;-56
2022/09/05 12:48:03;;;;;;;65.85;52.92;;;26.50;51.50;;;;;;5014876;27;91143;-61
2022/09/05 12:50:45;;;;;;;65.72;52.65;;;26.60;51.50;;;;;;5001433;27;91170;-58
2022/09/05 12:53:18;;;;;;;65.60;53.15;;;26.60;51.50;;;;;;5000207;27;91047;-59
2022/09/05 12:55:53;;;;;;;69.28;53.25;;;26.50;51.30;;;;;;5001980;27;90895;-62
2022/09/05 12:58:34;;;;;;;66.07;52.88;;;26.50;51.80;;;;;;5000883;27;92301;-57
2022/09/05 13:01:30;;;;;;;64.90;52.72;;;26.70;51.70;;;;;;5001080;27;93089;-61
2022/09/05 13:04:21;;;;;;;65.47;52.95;;;26.60;51.20;;;;;;5001729;27;94383;-58
2022/09/05 13:07:08;;;;;;;;;;;26.60;51.30;;;;;;5007386;27;90258;-57
2022/09/05 13:09:36;;;;;;;66.25;53.00;;;26.60;51.70;;;;;;5001943;27;91538;-52
2022/09/05 13:12:26;;;;;;;69.35;52.75;;;26.70;51.10;;;;;;5006303;27;91936;-54
2022/09/05 13:15:04;;;;;;;66.72;52.95;;;26.60;51.50;;;;;;4991814;27;91951;-58
2022/09/05 13:17:47;;;;;;;66.68;52.92;;;26.70;51.60;;;;;;5003975;27;93613;-55
2022/09/05 13:20:31;;;;;;;66.40;53.13;;;26.80;49.70;;;;;;5000763;27;90130;-56
2022/09/05 13:23:05;;;;;;;69.15;53.05;;;26.80;49.10;;;;;;5001911;27;94002;-59
2022/09/05 13:25:34;;;;;;;69.47;52.97;;;26.80;50.20;;;;;;5002161;27;90817;-57
2022/09/05 13:28:05;;;;;;;67.53;52.90;;;26.80;50.30;;;;;;5000915;27;93136;-57
2022/09/05 13:30:47;;;;;;;66.35;52.55;;;26.80;50.60;;;;;;5005913;27;91536;-64
2022/09/05 13:33:32;;;;;;;67.53;53.13;;;26.80;50.00;;;;;;4998516;27;91267;-65
2022/09/05 13:36:05;;;;;;;66.55;53.40;;;26.80;50.20;;;;;;5006443;27;92007;-52
2022/09/05 13:38:58;;;;;;;73.38;54.15;;;26.80;49.80;;;;;;5000087;27;91607;-56
2022/09/05 13:41:30;;;;;;;78.40;55.83;;;26.80;50.20;;;;;;5003723;27;91050;-54
2022/09/05 13:43:58;;;;;;;76.93;55.83;;;26.80;50.40;;;;;;4997164;27;90430;-53
2022/09/05 13:46:54;;;;;;;83.70;56.17;;;26.80;50.20;;;;;;4995728;27;90246;-56